Linda — OJML — position and weather

sailwx.info

Track history (hours):
 
Tides and Currents Weather Stations Pressure Air Temp Water Temp Dewpoint Dewpoint Depression Visibility Wind Speed Wind Dir Waves Ship Positions

Linda

Last reported at 2017-Sep-22 01:05 UTC. Time now 2017-Sep-23 18:25 UTC.
Position N 53°07' E 001°33'.

Length 141 m; draft 8.1 m.

Type: Ship (hazmat cat A). MMSI: 230984000.

Date/timePositionNaut miles runAvg speedWind from/ knotsBaromVisibWave heightAir tempDewpointWater temp
2017-Sep-22 01:05N 53°07' E 001°33'6414.3
2017-Sep-21 20:36N 53°56' E 000°24'115.0
2017-Sep-21 20:31N 53°57' E 000°22'815.0
2017-Sep-21 20:00N 54°03' E 000°14'815.3
2017-Sep-21 19:31N 54°08' E 000°05'815.7
2017-Sep-21 19:01N 54°14' W 000°04'815.9
2017-Sep-21 18:30N 54°20' W 000°14'816.2
2017-Sep-21 18:01N 54°26' W 000°23'29 2.9
2017-Sep-21 08:00N 54°42' W 001°05'5 9.5
2017-Sep-21 07:31N 54°44' W 000°58'611.2
2017-Sep-21 07:00N 54°47' W 000°49'41714.7
2017-Sep-20 02:38N 57°47' E 010°29'417.2
2017-Sep-20 02:26N 57°47' E 010°36'716.6
2017-Sep-20 02:00N 57°47' E 010°49'817.0
2017-Sep-20 01:30N 57°41' E 011°01'916.8
2017-Sep-20 01:00N 57°36' E 011°13'817.1
2017-Sep-20 00:30N 57°30' E 011°24'917.2
2017-Sep-20 00:00N 57°22' E 011°30'917.2
2017-Sep-19 23:30N 57°14' E 011°36'917.2
2017-Sep-19 23:00N 57°06' E 011°42'5216.0
2017-Sep-19 19:44N 56°18' E 012°19'416.0
2017-Sep-19 19:30N 56°15' E 012°23'817.0
2017-Sep-19 19:00N 56°08' E 012°32'816.9
2017-Sep-19 18:30N 56°01' E 012°41'816.4
2017-Sep-19 18:00N 55°53' E 012°44'816.5
2017-Sep-19 17:30N 55°45' E 012°42'713.7
2017-Sep-19 17:00N 55°38' E 012°42'3 6.6
2017-Sep-19 16:30N 55°35' E 012°42'3 6.6
2017-Sep-19 16:00N 55°32' E 012°42'4 8.9
2017-Sep-19 15:31N 55°27' E 012°42'815.5
2017-Sep-19 15:01N 55°20' E 012°40'714.8
2017-Sep-19 14:30N 55°16' E 012°52'815.9
2017-Sep-19 14:00N 55°15' E 013°06'816.3
2017-Sep-19 13:31N 55°15' E 013°20'3215.9
2017-Sep-19 11:31N 55°13' E 014°15'014.9
2017-Sep-19 11:30N 55°13' E 014°16'816.2
2017-Sep-19 11:00N 55°19' E 014°25'816.5
2017-Sep-19 10:30N 55°25' E 014°34'1315.9
2017-Sep-19 09:40N 55°27' E 014°58'516.0
2017-Sep-19 09:22N 55°27' E 015°06'716.0
2017-Sep-19 08:57N 55°27' E 015°18'716.1
2017-Sep-19 08:31N 55°27' E 015°30'2316.1
2017-Sep-19 07:05N 55°28' E 016°11'416.2
2017-Sep-19 06:51N 55°29' E 016°17'  
2017-Sep-15 22:28N 59°34' E 022°58'613.3
2017-Sep-15 22:00N 59°37' E 023°09'613.1
2017-Sep-15 21:31N 59°39' E 023°22'612.9
2017-Sep-15 21:01N 59°41' E 023°34'713.1
2017-Sep-15 20:31N 59°43' E 023°46'713.1
2017-Sep-15 20:00N 59°45' E 023°58'1013.8
2017-Sep-15 19:15N 59°48' E 024°18'311.5
2017-Sep-15 19:00N 59°49' E 024°23'55 3.2
2017-Sep-15 01:29N 59°58' E 026°12'714.1
2017-Sep-15 01:01N 59°60' E 026°25'714.1
2017-Sep-15 00:31N 60°01' E 026°39'714.4
2017-Sep-15 00:01N 60°00' E 026°53'713.1
2017-Sep-14 23:31N 60°01' E 027°06'713.4
2017-Sep-14 23:01N 60°04' E 027°18'713.7
2017-Sep-14 22:30N 60°07' E 027°30'713.7
2017-Sep-14 22:00N 60°11' E 027°42'612.9
2017-Sep-14 21:31N 60°11' E 027°55'713.9
2017-Sep-14 21:00N 60°09' E 028°08'713.4
2017-Sep-14 20:31N 60°06' E 028°21'813.8
2017-Sep-14 19:58N 60°03' E 028°34'613.6
2017-Sep-14 19:30N 60°03' E 028°47'2313.3
2017-Sep-14 17:47N 60°01' E 029°32'413.2
2017-Sep-14 17:30N 59°60' E 029°39'2 3.5
2017-Sep-14 17:00N 60°00' E 029°43'0 0.0
2017-Sep-14 15:11N 60°00' E 029°43'0 0.0
2017-Sep-14 07:38N 60°00' E 029°43'0 0.0
2017-Sep-14 05:55N 60°00' E 029°43'1 1.3
2017-Sep-14 05:30N 59°60' E 029°42'3 5.2
2017-Sep-14 05:00N 60°00' E 029°37'5 9.8
2017-Sep-14 04:30N 60°01' E 029°28'5 9.7
2017-Sep-14 04:00N 60°02' E 029°18'713.0
2017-Sep-14 03:30N 60°02' E 029°05'613.2
2017-Sep-14 03:00N 60°02' E 028°52'713.4
2017-Sep-14 02:30N 60°02' E 028°39'713.3
2017-Sep-14 02:01N 60°03' E 028°25'713.1
2017-Sep-14 01:31N 60°07' E 028°15'613.0
2017-Sep-14 01:00N 60°09' E 028°02'612.6
2017-Sep-14 00:30N 60°10' E 027°50'612.3
2017-Sep-14 00:01N 60°08' E 027°38'713.0
2017-Sep-13 23:30N 60°05' E 027°27'713.1
2017-Sep-13 23:01N 60°02' E 027°16'713.4
2017-Sep-13 22:30N 59°58' E 027°04'713.2
2017-Sep-13 22:00N 59°59' E 026°51'713.3
2017-Sep-13 21:30N 59°59' E 026°38'713.7
2017-Sep-13 21:00N 59°57' E 026°25'38 2.2
2017-Sep-13 03:22N 60°11' E 025°13'1515.0
2017-Sep-13 02:22N 59°57' E 025°02'514.6
2017-Sep-13 02:00N 59°53' E 024°56'714.9
2017-Sep-13 01:31N 59°46' E 024°48'714.3
2017-Sep-13 01:01N 59°44' E 024°35'714.7
2017-Sep-13 00:30N 59°43' E 024°20'1714.1
2017-Sep-12 23:17N 59°38' E 023°47'614.4
2017-Sep-12 22:53N 59°36' E 023°37'514.4
2017-Sep-12 22:31N 59°34' E 023°27'31214.6
2017-Sep-12 01:09N 55°57' E 016°27'  
Track history (hours):
 
Tides and Currents Weather Stations Pressure Air Temp Water Temp Dewpoint Dewpoint Depression Visibility Wind Speed Wind Dir Waves Ship Positions

Linda

Last reported at 2017-Sep-22 01:05 UTC. Time now 2017-Sep-23 18:25 UTC.
Position N 53°07' E 001°33'.

Length 141 m; draft 8.1 m.

Type: Ship (hazmat cat A). MMSI: 230984000.

Date/timePositionNaut miles runAvg speedWind from/ knotsBaromVisibWave heightAir tempDewpointWater temp
2017-Sep-22 01:05N 53°07' E 001°33'6414.3
2017-Sep-21 20:36N 53°56' E 000°24'115.0
2017-Sep-21 20:31N 53°57' E 000°22'815.0
2017-Sep-21 20:00N 54°03' E 000°14'815.3
2017-Sep-21 19:31N 54°08' E 000°05'815.7
2017-Sep-21 19:01N 54°14' W 000°04'815.9
2017-Sep-21 18:30N 54°20' W 000°14'816.2
2017-Sep-21 18:01N 54°26' W 000°23'29 2.9
2017-Sep-21 08:00N 54°42' W 001°05'5 9.5
2017-Sep-21 07:31N 54°44' W 000°58'611.2
2017-Sep-21 07:00N 54°47' W 000°49'41714.7
2017-Sep-20 02:38N 57°47' E 010°29'417.2
2017-Sep-20 02:26N 57°47' E 010°36'716.6
2017-Sep-20 02:00N 57°47' E 010°49'817.0
2017-Sep-20 01:30N 57°41' E 011°01'916.8
2017-Sep-20 01:00N 57°36' E 011°13'817.1
2017-Sep-20 00:30N 57°30' E 011°24'917.2
2017-Sep-20 00:00N 57°22' E 011°30'917.2
2017-Sep-19 23:30N 57°14' E 011°36'917.2
2017-Sep-19 23:00N 57°06' E 011°42'5216.0
2017-Sep-19 19:44N 56°18' E 012°19'416.0
2017-Sep-19 19:30N 56°15' E 012°23'817.0
2017-Sep-19 19:00N 56°08' E 012°32'816.9
2017-Sep-19 18:30N 56°01' E 012°41'816.4
2017-Sep-19 18:00N 55°53' E 012°44'816.5
2017-Sep-19 17:30N 55°45' E 012°42'713.7
2017-Sep-19 17:00N 55°38' E 012°42'3 6.6
2017-Sep-19 16:30N 55°35' E 012°42'3 6.6
2017-Sep-19 16:00N 55°32' E 012°42'4 8.9
2017-Sep-19 15:31N 55°27' E 012°42'815.5
2017-Sep-19 15:01N 55°20' E 012°40'714.8
2017-Sep-19 14:30N 55°16' E 012°52'815.9
2017-Sep-19 14:00N 55°15' E 013°06'816.3
2017-Sep-19 13:31N 55°15' E 013°20'3215.9
2017-Sep-19 11:31N 55°13' E 014°15'014.9
2017-Sep-19 11:30N 55°13' E 014°16'816.2
2017-Sep-19 11:00N 55°19' E 014°25'816.5
2017-Sep-19 10:30N 55°25' E 014°34'1315.9
2017-Sep-19 09:40N 55°27' E 014°58'516.0
2017-Sep-19 09:22N 55°27' E 015°06'716.0
2017-Sep-19 08:57N 55°27' E 015°18'716.1
2017-Sep-19 08:31N 55°27' E 015°30'2316.1
2017-Sep-19 07:05N 55°28' E 016°11'416.2
2017-Sep-19 06:51N 55°29' E 016°17'  
2017-Sep-15 22:28N 59°34' E 022°58'613.3
2017-Sep-15 22:00N 59°37' E 023°09'613.1
2017-Sep-15 21:31N 59°39' E 023°22'612.9
2017-Sep-15 21:01N 59°41' E 023°34'713.1
2017-Sep-15 20:31N 59°43' E 023°46'713.1
2017-Sep-15 20:00N 59°45' E 023°58'1013.8
2017-Sep-15 19:15N 59°48' E 024°18'311.5
2017-Sep-15 19:00N 59°49' E 024°23'55 3.2
2017-Sep-15 01:29N 59°58' E 026°12'714.1
2017-Sep-15 01:01N 59°60' E 026°25'714.1
2017-Sep-15 00:31N 60°01' E 026°39'714.4
2017-Sep-15 00:01N 60°00' E 026°53'713.1
2017-Sep-14 23:31N 60°01' E 027°06'713.4
2017-Sep-14 23:01N 60°04' E 027°18'713.7
2017-Sep-14 22:30N 60°07' E 027°30'713.7
2017-Sep-14 22:00N 60°11' E 027°42'612.9
2017-Sep-14 21:31N 60°11' E 027°55'713.9
2017-Sep-14 21:00N 60°09' E 028°08'713.4
2017-Sep-14 20:31N 60°06' E 028°21'813.8
2017-Sep-14 19:58N 60°03' E 028°34'613.6
2017-Sep-14 19:30N 60°03' E 028°47'2313.3
2017-Sep-14 17:47N 60°01' E 029°32'413.2
2017-Sep-14 17:30N 59°60' E 029°39'2 3.5
2017-Sep-14 17:00N 60°00' E 029°43'0 0.0
2017-Sep-14 15:11N 60°00' E 029°43'0 0.0
2017-Sep-14 07:38N 60°00' E 029°43'0 0.0
2017-Sep-14 05:55N 60°00' E 029°43'1 1.3
2017-Sep-14 05:30N 59°60' E 029°42'3 5.2
2017-Sep-14 05:00N 60°00' E 029°37'5 9.8
2017-Sep-14 04:30N 60°01' E 029°28'5 9.7
2017-Sep-14 04:00N 60°02' E 029°18'713.0
2017-Sep-14 03:30N 60°02' E 029°05'613.2
2017-Sep-14 03:00N 60°02' E 028°52'713.4
2017-Sep-14 02:30N 60°02' E 028°39'713.3
2017-Sep-14 02:01N 60°03' E 028°25'713.1
2017-Sep-14 01:31N 60°07' E 028°15'613.0
2017-Sep-14 01:00N 60°09' E 028°02'612.6
2017-Sep-14 00:30N 60°10' E 027°50'612.3
2017-Sep-14 00:01N 60°08' E 027°38'713.0
2017-Sep-13 23:30N 60°05' E 027°27'713.1
2017-Sep-13 23:01N 60°02' E 027°16'713.4
2017-Sep-13 22:30N 59°58' E 027°04'713.2
2017-Sep-13 22:00N 59°59' E 026°51'713.3
2017-Sep-13 21:30N 59°59' E 026°38'713.7
2017-Sep-13 21:00N 59°57' E 026°25'38 2.2
2017-Sep-13 03:22N 60°11' E 025°13'1515.0
2017-Sep-13 02:22N 59°57' E 025°02'514.6
2017-Sep-13 02:00N 59°53' E 024°56'714.9
2017-Sep-13 01:31N 59°46' E 024°48'714.3
2017-Sep-13 01:01N 59°44' E 024°35'714.7
2017-Sep-13 00:30N 59°43' E 024°20'1714.1
2017-Sep-12 23:17N 59°38' E 023°47'614.4
2017-Sep-12 22:53N 59°36' E 023°37'514.4
2017-Sep-12 22:31N 59°34' E 023°27'31214.6
2017-Sep-12 01:09N 55°57' E 016°27'  

Dump ship's entire track history